Time;durP1;ratioP1;P1;durP2;ratioP2;P2;SDS_P1;SDS_P2;PMS_P1;PMS_P2;Temp;Humidity;BMP_temperature;BMP_pressure;BME280_temperature;BME280_humidity;BME280_pressure;Samples;Min_cycle;Max_cycle;Signal;HPM_P1;HPM_P2
2022/08/12 00:44:34;;;;;;;3.85;1.77;;;21.00;99.90;;;;;;5011044;28;20165;-76
2022/08/12 00:47:02;;;;;;;4.95;1.83;;;20.90;99.90;;;;;;5010886;28;20389;-76
2022/08/12 00:49:30;;;;;;;4.00;2.03;;;20.90;99.90;;;;;;5010594;28;20086;-76
2022/08/12 00:52:06;;;;;;;2.28;1.98;;;20.90;99.90;;;;;;5010718;28;20050;-76
2022/08/12 00:54:39;;;;;;;3.35;2.00;;;20.80;99.90;;;;;;5010396;28;20133;-76
2022/08/12 00:57:13;;;;;;;4.10;2.30;;;20.90;99.90;;;;;;5011057;28;20129;-76
2022/08/12 00:59:55;;;;;;;8.77;2.13;;;20.90;99.90;;;;;;5013790;28;20141;-76
2022/08/12 01:02:33;;;;;;;6.22;2.20;;;20.90;99.90;;;;;;5014005;28;20081;-76
2022/08/12 01:13:24;;;;;;;6.72;1.95;;;20.70;99.90;;;;;;5014188;28;20084;-76
2022/08/12 01:15:56;;;;;;;2.25;1.90;;;20.70;99.90;;;;;;5013979;28;20053;-76
2022/08/12 01:18:26;;;;;;;6.57;2.08;;;20.60;99.90;;;;;;5013921;28;20088;-76
2022/08/12 01:21:10;;;;;;;2.83;2.17;;;20.60;99.90;;;;;;5014158;28;20404;-76
2022/08/12 01:23:40;;;;;;;6.20;2.13;;;20.70;99.90;;;;;;5012987;28;20042;-76
2022/08/12 01:26:09;;;;;;;4.20;2.28;;;20.60;99.90;;;;;;5014105;28;20056;-76
2022/08/12 01:28:39;;;;;;;4.80;2.20;;;20.60;99.90;;;;;;5013911;28;20136;-76
2022/08/12 01:31:07;;;;;;;10.15;2.35;;;20.50;99.90;;;;;;5012912;28;20108;-76
2022/08/12 01:33:44;;;;;;;5.50;2.22;;;20.50;99.90;;;;;;5014089;28;20129;-76
2022/08/12 01:36:12;;;;;;;2.42;2.22;;;20.50;99.90;;;;;;5013266;28;20427;-75
2022/08/12 01:38:42;;;;;;;2.45;2.00;;;20.50;99.90;;;;;;5013234;28;20072;-76
2022/08/12 01:41:12;;;;;;;3.00;2.00;;;20.40;99.90;;;;;;5012919;28;20434;-76
2022/08/12 01:43:40;;;;;;;2.67;2.25;;;20.40;99.90;;;;;;5013829;28;20060;-76
2022/08/12 01:46:23;;;;;;;3.03;2.47;;;20.40;99.90;;;;;;5013741;28;20415;-76
2022/08/12 01:49:20;;;;;;;3.78;2.08;;;20.30;99.90;;;;;;5012598;28;20507;-76
2022/08/12 01:52:03;;;;;;;3.42;2.08;;;20.30;99.90;;;;;;5010427;28;20296;-76
2022/08/12 01:54:49;;;;;;;3.63;2.38;;;20.30;99.90;;;;;;5012979;28;20431;-76
2022/08/12 01:57:18;;;;;;;3.67;2.10;;;20.30;99.90;;;;;;5013522;28;20077;-76
2022/08/12 02:00:11;;;;;;;4.18;2.35;;;20.30;99.90;;;;;;5012895;28;20057;-76
2022/08/12 02:03:28;;;;;;;3.70;2.45;;;20.20;99.90;;;;;;5013413;28;20054;-76
2022/08/12 02:11:52;;;;;;;3.95;2.33;;;20.10;99.90;;;;;;5011959;28;20547;-76
2022/08/12 02:14:39;;;;;;;5.55;2.13;;;20.00;99.90;;;;;;5010601;28;20424;-76
2022/08/12 02:17:43;;;;;;;3.47;2.40;;;20.00;99.90;;;;;;5011001;28;20089;-76
2022/08/12 02:21:00;;;;;;;4.20;1.95;;;19.90;99.90;;;;;;5012818;28;20057;-76
2022/08/12 02:23:27;;;;;;;9.05;2.20;;;19.90;99.90;;;;;;4952135;29;20075;-76
2022/08/12 02:26:00;;;;;;;5.03;2.00;;;19.90;99.90;;;;;;5002636;28;20049;-76
2022/08/12 02:28:28;;;;;;;3.22;2.03;;;19.90;99.90;;;;;;5012409;28;20133;-76
2022/08/12 02:30:56;;;;;;;5.68;2.85;;;19.80;99.90;;;;;;5012808;28;20052;-76
2022/08/12 02:33:23;;;;;;;5.88;2.78;;;19.80;99.90;;;;;;5012705;28;20045;-76
2022/08/12 02:35:50;;;;;;;6.13;2.25;;;19.70;99.90;;;;;;5013019;28;20056;-76
2022/08/12 02:38:20;;;;;;;3.55;2.22;;;19.70;99.90;;;;;;5012521;28;20153;-76
2022/08/12 02:40:53;;;;;;;4.10;2.22;;;19.70;99.90;;;;;;5009603;28;20073;-76
2022/08/12 02:43:26;;;;;;;6.25;2.50;;;19.60;99.90;;;;;;5012696;28;20073;-76
2022/08/12 02:46:02;;;;;;;7.35;2.63;;;19.60;99.90;;;;;;5012940;28;20079;-76
2022/08/12 02:48:46;;;;;;;6.13;2.60;;;19.60;99.90;;;;;;5012339;28;20070;-76
2022/08/12 02:51:18;;;;;;;8.50;2.42;;;19.50;99.90;;;;;;5012102;28;20077;-76
2022/08/12 02:53:45;;;;;;;3.78;2.63;;;19.50;99.90;;;;;;5012579;28;20057;-76
2022/08/12 02:56:35;;;;;;;4.53;1.92;;;19.50;99.90;;;;;;5012505;28;20073;-76
2022/08/12 02:59:03;;;;;;;3.17;2.13;;;19.30;99.90;;;;;;5008560;28;20077;-76
2022/08/12 03:01:32;;;;;;;5.47;2.28;;;19.30;99.90;;;;;;5012225;28;20078;-76
2022/08/12 03:04:03;;;;;;;8.50;2.97;;;19.20;99.90;;;;;;5012285;28;20054;-76
2022/08/12 03:07:01;;;;;;;9.48;2.25;;;19.30;99.90;;;;;;5014483;28;20069;-76
2022/08/12 03:09:32;;;;;;;8.82;2.65;;;19.30;99.90;;;;;;5013274;28;20103;-76
2022/08/12 03:12:23;;;;;;;4.53;2.72;;;19.20;99.90;;;;;;5011988;28;20045;-76
2022/08/12 03:14:53;;;;;;;5.80;2.15;;;19.20;99.90;;;;;;5012090;28;20053;-76
2022/08/12 03:17:51;;;;;;;5.13;2.33;;;19.10;99.90;;;;;;5011823;28;20133;-76
2022/08/12 03:20:39;;;;;;;4.60;2.05;;;19.10;99.90;;;;;;5008332;28;20050;-76
2022/08/12 03:23:11;;;;;;;5.95;2.47;;;19.10;99.90;;;;;;5011198;28;20104;-75
2022/08/12 03:26:00;;;;;;;3.97;1.90;;;18.90;99.90;;;;;;5011488;28;20042;-76
2022/08/12 03:31:19;;;;;;;2.75;2.03;;;18.70;99.90;;;;;;5011842;28;20081;-76
2022/08/12 03:33:48;;;;;;;2.33;2.13;;;18.70;99.90;;;;;;5011199;28;20077;-76
2022/08/12 03:36:33;;;;;;;3.22;2.17;;;18.70;99.90;;;;;;5011914;28;20147;-76
2022/08/12 03:42:00;;;;;;;5.70;2.40;;;18.70;99.90;;;;;;5011846;28;20058;-76
2022/08/12 04:01:21;;;;;;;6.93;2.60;;;18.70;99.90;;;;;;5011257;28;20559;-76
2022/08/12 04:03:51;;;;;;;8.10;2.80;;;18.60;99.90;;;;;;5011440;28;20459;-76
2022/08/12 04:06:29;;;;;;;7.68;2.45;;;18.70;99.90;;;;;;5011283;28;20050;-76
2022/08/12 04:09:04;;;;;;;2.83;2.05;;;18.70;99.90;;;;;;5010604;28;20061;-76
2022/08/12 04:14:30;;;;;;;8.02;2.42;;;18.70;99.90;;;;;;5010081;28;20060;-76
2022/08/12 04:16:57;;;;;;;4.97;2.10;;;18.70;99.90;;;;;;5011442;28;20200;-76
2022/08/12 04:19:25;;;;;;;3.33;2.15;;;18.70;99.90;;;;;;5011038;28;20148;-76
2022/08/12 04:21:54;;;;;;;4.15;2.42;;;18.60;99.90;;;;;;5010993;28;20169;-76
2022/08/12 04:24:33;;;;;;;4.50;2.10;;;18.60;99.90;;;;;;5011040;28;20058;-75
2022/08/12 04:27:07;;;;;;;4.18;2.40;;;18.70;99.90;;;;;;5009238;28;20042;-76
2022/08/12 04:29:36;;;;;;;4.68;2.00;;;18.60;99.90;;;;;;5009676;28;20054;-76
2022/08/12 04:32:23;;;;;;;2.47;2.10;;;18.70;99.90;;;;;;5010231;28;20054;-76
2022/08/12 04:34:50;;;;;;;3.20;2.33;;;18.60;99.90;;;;;;5014815;28;20522;-76
2022/08/12 04:37:17;;;;;;;2.63;2.10;;;18.60;99.90;;;;;;5014718;28;20512;-76
2022/08/12 04:39:45;;;;;;;7.28;2.10;;;18.60;99.90;;;;;;5014378;28;20041;-76
2022/08/12 04:42:12;;;;;;;4.10;1.95;;;18.50;99.90;;;;;;5014883;28;20081;-76
2022/08/12 04:44:40;;;;;;;7.40;2.10;;;18.50;99.90;;;;;;5013321;28;20453;-75
2022/08/12 04:47:13;;;;;;;8.63;2.05;;;18.50;99.90;;;;;;5014500;28;20128;-76
2022/08/12 04:49:43;;;;;;;4.70;2.10;;;18.50;99.90;;;;;;5012648;28;20104;-76
2022/08/12 04:52:11;;;;;;;2.97;2.20;;;18.60;99.90;;;;;;5014328;28;20056;-76
2022/08/12 04:54:37;;;;;;;7.25;2.45;;;18.50;99.90;;;;;;5014722;28;20060;-76
2022/08/12 04:57:08;;;;;;;8.05;3.03;;;18.60;99.90;;;;;;5014672;28;20067;-76
2022/08/12 04:59:36;;;;;;;8.73;2.50;;;18.60;99.90;;;;;;5013178;28;20046;-75
2022/08/12 05:02:13;;;;;;;6.05;2.60;;;18.70;99.90;;;;;;5014486;28;20080;-76
2022/08/12 05:04:47;;;;;;;6.03;2.42;;;18.70;99.90;;;;;;5012758;28;20042;-76
2022/08/12 05:07:14;;;;;;;5.13;2.13;;;18.70;99.90;;;;;;5014547;28;20108;-76
2022/08/12 05:09:40;;;;;;;3.08;2.33;;;18.70;99.90;;;;;;5013839;28;20050;-76
2022/08/12 05:12:35;;;;;;;3.60;2.33;;;18.80;99.90;;;;;;5013675;28;20056;-76
2022/08/12 05:15:04;;;;;;;3.03;2.10;;;18.80;99.90;;;;;;5014176;28;20054;-76
2022/08/12 05:17:51;;;;;;;6.22;2.20;;;18.80;99.90;;;;;;5013101;28;20057;-76
2022/08/12 05:20:19;;;;;;;6.95;2.15;;;18.80;99.90;;;;;;5011412;28;20491;-76
2022/08/12 05:22:46;;;;;;;4.90;1.90;;;18.90;99.90;;;;;;5014241;28;20196;-75
2022/08/12 05:25:14;;;;;;;2.75;1.90;;;18.90;99.90;;;;;;5013847;28;20503;-76
2022/08/12 05:27:44;;;;;;;5.25;2.13;;;18.90;99.90;;;;;;5014006;28;20507;-75
2022/08/12 05:30:38;;;;;;;4.22;2.45;;;19.00;99.90;;;;;;5013888;28;20053;-76
2022/08/12 05:33:05;;;;;;;3.70;2.35;;;19.00;99.90;;;;;;5013985;28;20468;-76
2022/08/12 05:35:38;;;;;;;5.18;2.03;;;19.00;99.90;;;;;;5013987;28;20081;-76
2022/08/12 05:40:51;;;;;;;5.18;2.10;;;19.10;99.90;;;;;;5010814;28;20081;-76
2022/08/12 05:43:19;;;;;;;3.00;2.22;;;19.10;99.90;;;;;;5013583;28;20050;-76
2022/08/12 05:45:46;;;;;;;3.95;2.30;;;19.10;99.90;;;;;;5012870;28;20419;-76
2022/08/12 05:48:13;;;;;;;4.80;2.45;;;19.10;99.90;;;;;;5013438;28;20137;-76
2022/08/12 05:50:41;;;;;;;4.82;2.90;;;19.10;99.90;;;;;;5013422;28;20186;-75
2022/08/12 05:53:08;;;;;;;3.35;2.88;;;19.10;99.90;;;;;;5012809;28;20081;-75
2022/08/12 05:55:36;;;;;;;6.95;3.10;;;19.20;99.90;;;;;;5013136;28;20089;-75
2022/08/12 05:58:03;;;;;;;8.75;3.50;;;19.20;99.90;;;;;;5013277;28;20085;-75
2022/08/12 06:00:31;;;;;;;7.07;3.35;;;19.20;99.90;;;;;;5013015;28;20136;-76
2022/08/12 06:03:01;;;;;;;4.22;3.08;;;19.30;99.90;;;;;;5012948;28;20504;-76
2022/08/12 06:05:35;;;;;;;;;;;19.30;99.90;;;;;;5013081;28;20049;-75
2022/08/12 06:08:21;;;;;;;6.43;3.38;;;19.30;99.90;;;;;;5013043;28;19921;-75
2022/08/12 06:10:51;;;;;;;12.95;4.80;;;19.30;99.90;;;;;;5013219;28;20082;-75
2022/08/12 06:13:18;;;;;;;6.65;3.17;;;19.30;99.90;;;;;;5012760;28;20532;-75
2022/08/12 06:16:06;;;;;;;7.40;3.35;;;19.30;99.90;;;;;;5012710;28;20068;-75
2022/08/12 06:18:33;;;;;;;11.30;3.83;;;19.30;99.90;;;;;;5012924;28;20050;-75
2022/08/12 06:21:00;;;;;;;10.43;3.25;;;19.30;99.90;;;;;;5013003;28;20053;-75
2022/08/12 06:23:29;;;;;;;9.45;3.67;;;19.40;99.90;;;;;;5012960;28;20046;-76
2022/08/12 06:25:57;;;;;;;5.80;2.97;;;19.40;99.90;;;;;;5012946;28;20128;-75
2022/08/12 06:28:25;;;;;;;7.82;3.30;;;19.50;99.90;;;;;;5012451;28;20069;-76
2022/08/12 06:30:52;;;;;;;8.23;3.88;;;19.50;99.90;;;;;;5012931;28;20085;-75
2022/08/12 06:33:43;;;;;;;6.90;2.65;;;19.60;99.90;;;;;;5012628;28;20058;-75
2022/08/12 06:36:23;;;;;;;5.97;3.17;;;19.60;99.90;;;;;;5010974;28;20140;-75
2022/08/12 06:38:55;;;;;;;4.57;2.70;;;19.60;99.90;;;;;;5012425;28;20471;-75
2022/08/12 06:44:28;;;;;;;6.18;3.20;;;19.60;99.90;;;;;;5012493;28;20064;-76
2022/08/12 06:46:55;;;;;;;9.27;3.67;;;19.70;99.90;;;;;;5013339;28;20049;-76
2022/08/12 06:49:24;;;;;;;6.82;3.60;;;19.60;99.90;;;;;;5012414;28;20050;-75
2022/08/12 06:51:54;;;;;;;5.70;3.63;;;19.60;99.90;;;;;;5012458;28;20050;-75
2022/08/12 06:54:24;;;;;;;10.30;3.92;;;19.70;99.90;;;;;;5012412;28;20096;-75
2022/08/12 06:57:01;;;;;;;6.80;4.22;;;19.80;99.90;;;;;;5012033;28;20064;-75
2022/08/12 06:59:49;;;;;;;6.75;3.38;;;19.80;99.90;;;;;;5011996;28;20053;-75
2022/08/12 07:02:17;;;;;;;7.78;3.85;;;19.80;99.90;;;;;;5012168;28;20127;-75
2022/08/12 07:04:46;;;;;;;11.05;3.60;;;19.80;99.90;;;;;;5011980;28;20149;-75
2022/08/12 07:07:13;;;;;;;6.95;3.15;;;19.90;99.90;;;;;;5012304;28;20058;-75
2022/08/12 07:09:41;;;;;;;9.07;3.78;;;20.00;99.90;;;;;;5011888;28;20073;-76
2022/08/12 07:12:28;;;;;;;8.20;3.30;;;20.00;99.90;;;;;;5012103;28;20046;-75
2022/08/12 07:15:00;;;;;;;8.18;3.20;;;20.00;99.90;;;;;;5011778;28;20085;-75
2022/08/12 07:17:35;;;;;;;5.18;3.30;;;20.10;99.90;;;;;;5009752;28;20472;-75
2022/08/12 07:20:08;;;;;;;7.07;3.60;;;20.10;99.90;;;;;;5011800;28;20046;-75
2022/08/12 07:22:56;;;;;;;6.13;3.05;;;20.10;99.90;;;;;;5011753;28;20069;-76
2022/08/12 07:25:29;;;;;;;5.43;3.05;;;20.20;99.90;;;;;;5011778;28;20065;-76
2022/08/12 07:28:05;;;;;;;;;;;20.20;99.90;;;;;;5010469;28;20081;-76
2022/08/12 07:30:44;;;;;;;13.40;2.90;;;20.30;99.90;;;;;;5011846;28;19926;-76
2022/08/12 07:33:12;;;;;;;9.32;3.05;;;20.30;99.90;;;;;;5011878;28;20108;-75
2022/08/12 07:35:46;;;;;;;9.35;3.35;;;20.40;99.90;;;;;;5011279;28;20133;-76
2022/08/12 07:38:32;;;;;;;4.55;3.35;;;20.40;99.90;;;;;;5011758;28;20140;-75
2022/08/12 07:41:04;;;;;;;7.43;3.60;;;20.40;99.90;;;;;;5011488;28;20053;-75
2022/08/12 07:43:35;;;;;;;4.72;3.20;;;20.50;99.90;;;;;;5008805;28;20078;-76
2022/08/12 07:46:07;;;;;;;5.28;2.90;;;20.60;99.90;;;;;;5011680;28;20046;-75
2022/08/12 07:48:37;;;;;;;4.53;3.22;;;20.60;99.90;;;;;;5008421;28;20077;-75
2022/08/12 07:51:05;;;;;;;8.07;2.72;;;20.60;99.90;;;;;;5011223;28;20057;-76
2022/08/12 07:53:33;;;;;;;7.15;3.20;;;20.70;99.90;;;;;;5011463;28;20081;-75
2022/08/12 07:56:14;;;;;;;4.32;2.63;;;20.80;99.90;;;;;;5010510;28;20053;-76
2022/08/12 07:58:41;;;;;;;6.10;2.85;;;20.90;99.90;;;;;;5010865;28;20520;-75
2022/08/12 08:01:16;;;;;;;14.35;2.70;;;20.90;99.90;;;;;;5011142;28;20096;-76
2022/08/12 08:06:31;;;;;;;4.88;2.13;;;21.00;99.90;;;;;;5011272;28;20133;-76
2022/08/12 08:08:59;;;;;;;13.05;3.05;;;21.10;99.90;;;;;;5013534;28;20045;-75
2022/08/12 08:14:12;;;;;;;13.38;2.97;;;21.30;99.90;;;;;;5012312;28;20056;-75
2022/08/12 08:16:40;;;;;;;10.00;2.30;;;21.30;99.90;;;;;;5015207;28;20053;-75
2022/08/12 08:19:18;;;;;;;10.98;2.38;;;21.30;99.90;;;;;;5015130;28;20455;-75
2022/08/12 08:21:45;;;;;;;4.50;2.13;;;21.40;99.90;;;;;;5014771;28;20124;-75
2022/08/12 08:24:14;;;;;;;4.97;2.08;;;21.40;99.90;;;;;;5015131;28;20081;-75
2022/08/12 08:26:49;;;;;;;6.60;1.98;;;21.50;99.90;;;;;;5014913;28;20077;-75
2022/08/12 08:29:17;;;;;;;4.82;2.42;;;21.50;99.90;;;;;;5014771;28;20045;-75
2022/08/12 08:31:49;;;;;;;4.28;2.10;;;21.60;99.90;;;;;;5015186;28;20137;-75
2022/08/12 08:34:18;;;;;;;12.18;3.30;;;21.70;99.90;;;;;;5014719;28;20049;-75
2022/08/12 08:37:05;;;;;;;5.72;2.78;;;21.80;99.90;;;;;;5014825;28;20508;-75
2022/08/12 08:39:37;;;;;;;11.13;2.03;;;21.90;99.90;;;;;;5014676;28;20558;-75
2022/08/12 08:44:49;;;;;;;7.90;2.42;;;22.00;99.90;;;;;;5014222;28;20149;-75
2022/08/12 08:47:24;;;;;;;13.18;2.55;;;22.00;99.90;;;;;;5015004;28;20049;-75
2022/08/12 08:49:51;;;;;;;7.18;1.83;;;22.10;99.90;;;;;;5014586;28;20085;-75
2022/08/12 08:52:24;;;;;;;8.77;2.60;;;22.20;99.90;;;;;;5014296;28;20050;-75
2022/08/12 08:55:08;;;;;;;9.57;2.30;;;22.30;99.90;;;;;;5013897;28;20053;-75
2022/08/12 08:57:35;;;;;;;7.30;2.28;;;22.40;99.90;;;;;;5014193;28;20089;-75
2022/08/12 09:00:15;;;;;;;6.18;2.17;;;22.40;99.90;;;;;;5014332;28;20077;-75
2022/08/12 09:02:43;;;;;;;5.90;2.22;;;22.40;99.90;;;;;;5014315;28;20404;-75
2022/08/12 09:05:26;;;;;;;9.75;2.38;;;22.50;99.90;;;;;;5013956;28;20046;-75
2022/08/12 09:07:55;;;;;;;8.25;2.30;;;22.50;99.90;;;;;;5014148;28;20478;-75
2022/08/12 09:10:40;;;;;;;3.95;2.38;;;22.60;99.90;;;;;;5014104;28;20053;-75
2022/08/12 09:13:26;;;;;;;6.78;2.40;;;22.60;99.90;;;;;;5014310;28;20054;-75
2022/08/12 09:16:13;;;;;;;8.63;2.20;;;22.70;99.90;;;;;;5012143;28;20060;-76
2022/08/12 09:18:42;;;;;;;11.43;2.55;;;22.80;99.90;;;;;;5013774;28;20061;-75
2022/08/12 09:21:10;;;;;;;6.10;2.00;;;22.90;99.90;;;;;;5013346;28;20063;-75
2022/08/12 09:23:36;;;;;;;5.18;1.73;;;23.00;99.90;;;;;;5014074;28;20080;-75
2022/08/12 09:26:24;;;;;;;9.00;2.08;;;23.10;99.90;;;;;;5013864;28;20384;-75
2022/08/12 09:28:58;;;;;;;3.90;1.77;;;23.10;99.90;;;;;;5012911;28;20141;-75
2022/08/12 09:31:26;;;;;;;5.35;1.70;;;23.10;99.90;;;;;;5013891;28;20064;-75
2022/08/12 09:34:14;;;;;;;7.32;2.33;;;23.20;99.90;;;;;;5013890;28;20060;-76
2022/08/12 09:37:00;;;;;;;6.25;2.00;;;23.40;99.90;;;;;;5013104;28;20132;-76
2022/08/12 09:39:44;;;;;;;6.65;2.20;;;23.40;99.90;;;;;;5012595;28;20058;-76
2022/08/12 09:45:36;;;;;;;5.65;1.67;;;23.50;99.90;;;;;;5012056;28;20503;-75
2022/08/12 09:48:22;;;;;;;6.75;2.40;;;23.60;99.90;;;;;;5013210;28;20508;-75
2022/08/12 09:50:50;;;;;;;9.52;2.28;;;23.70;99.90;;;;;;5013300;28;20100;-75
2022/08/12 09:53:23;;;;;;;8.00;2.10;;;23.70;99.90;;;;;;5011629;28;20058;-75
2022/08/12 09:56:06;;;;;;;5.57;1.85;;;23.80;99.90;;;;;;5013578;28;20050;-76
2022/08/12 09:58:53;;;;;;;9.75;2.25;;;23.80;99.90;;;;;;5013267;28;20046;-75
2022/08/12 10:01:27;;;;;;;7.70;2.33;;;23.80;99.90;;;;;;5012857;28;20133;-75
2022/08/12 10:04:15;;;;;;;3.83;1.80;;;23.90;99.90;;;;;;5013136;28;20496;-75
2022/08/12 10:06:46;;;;;;;4.82;2.05;;;23.90;99.90;;;;;;5013347;28;20161;-75
2022/08/12 10:09:21;;;;;;;3.20;1.95;;;24.00;99.90;;;;;;5010415;28;20096;-75
2022/08/12 10:15:00;;;;;;;6.15;2.10;;;24.20;99.90;;;;;;5010053;28;20054;-75
2022/08/12 10:17:27;;;;;;;2.47;1.85;;;24.20;99.90;;;;;;5012761;28;20081;-75
2022/08/12 10:19:54;;;;;;;4.43;1.98;;;24.30;99.90;;;;;;5012642;28;20081;-75
2022/08/12 10:22:25;;;;;;;8.52;2.30;;;24.30;99.90;;;;;;5012937;28;20154;-75
2022/08/12 10:31:05;;;;;;;5.00;2.08;;;24.60;99.90;;;;;;5011760;28;20570;-75
2022/08/12 10:33:41;;;;;;;2.85;1.67;;;24.60;99.90;;;;;;5012758;28;20054;-75
2022/08/12 10:36:29;;;;;;;5.63;2.28;;;24.70;99.90;;;;;;5012769;28;20076;-75
2022/08/12 10:39:11;;;;;;;7.97;2.10;;;24.80;99.90;;;;;;5012359;28;20046;-75
2022/08/12 10:44:59;;;;;;;3.65;1.52;;;25.00;99.90;;;;;;5012449;28;20451;-75
2022/08/12 10:47:31;;;;;;;8.13;1.92;;;24.90;99.90;;;;;;5012757;28;20046;-75
2022/08/12 10:50:21;;;;;;;3.53;1.48;;;25.00;99.90;;;;;;5012086;28;20088;-75
2022/08/12 10:53:06;;;;;;;7.57;1.95;;;25.00;99.90;;;;;;5012341;28;20080;-75
2022/08/12 10:55:35;;;;;;;2.88;1.55;;;25.00;99.90;;;;;;5012179;28;20045;-75
2022/08/12 10:58:01;;;;;;;2.40;1.77;;;25.10;99.90;;;;;;5012481;28;20460;-75
2022/08/12 11:00:48;;;;;;;6.32;1.30;;;25.10;99.90;;;;;;5012068;28;20042;-75
2022/08/12 11:03:38;;;;;;;3.78;1.60;;;25.30;99.90;;;;;;5012428;28;20069;-75
2022/08/12 11:06:25;;;;;;;6.85;1.70;;;25.50;99.90;;;;;;5011924;28;20046;-75
2022/08/12 11:09:16;;;;;;;3.53;1.60;;;25.80;99.90;;;;;;5011888;28;20065;-75
2022/08/12 11:12:05;;;;;;;7.00;2.38;;;25.90;99.90;;;;;;5011988;28;20069;-75
2022/08/12 11:14:55;;;;;;;5.07;1.35;;;26.00;99.10;;;;;;5011678;28;20121;-75
2022/08/12 11:17:24;;;;;;;2.03;1.63;;;26.00;99.60;;;;;;5012052;28;20061;-76
2022/08/12 11:20:11;;;;;;;3.15;1.40;;;26.00;99.60;;;;;;5011363;28;20521;-75
2022/08/12 11:22:40;;;;;;;3.35;1.33;;;26.00;98.90;;;;;;5011678;28;20519;-75
2022/08/12 11:25:20;;;;;;;3.88;1.58;;;26.10;98.50;;;;;;5011797;28;20057;-75
2022/08/12 11:27:48;;;;;;;2.78;1.40;;;26.20;98.40;;;;;;5011985;28;20088;-76
2022/08/12 11:30:17;;;;;;;1.40;1.30;;;26.10;98.30;;;;;;5009029;28;20056;-76
2022/08/12 11:32:57;;;;;;;4.68;1.50;;;26.00;98.30;;;;;;5011226;28;20057;-76
2022/08/12 11:35:26;;;;;;;3.22;1.50;;;26.20;98.00;;;;;;5011771;28;20097;-76
2022/08/12 11:37:55;;;;;;;4.30;1.63;;;26.20;97.30;;;;;;5011772;28;20053;-75
2022/08/12 11:40:25;;;;;;;2.28;1.38;;;26.30;97.70;;;;;;5011320;28;20049;-76
2022/08/12 11:42:54;;;;;;;3.17;1.38;;;26.60;97.10;;;;;;5010533;28;20050;-75
2022/08/12 11:45:41;;;;;;;3.08;1.50;;;26.60;97.40;;;;;;5011788;28;20054;-75
2022/08/12 11:48:12;;;;;;;4.65;1.40;;;26.50;97.70;;;;;;5009306;28;20053;-76
2022/08/12 11:50:44;;;;;;;4.63;1.45;;;26.50;98.00;;;;;;5011301;28;20104;-75
2022/08/12 11:53:11;;;;;;;6.10;1.45;;;26.50;97.80;;;;;;5008979;28;20077;-75
2022/08/12 11:55:58;;;;;;;2.53;1.30;;;26.70;96.80;;;;;;5011602;28;20054;-75
2022/08/12 11:58:24;;;;;;;2.47;1.30;;;26.70;96.90;;;;;;5011099;28;20049;-76
2022/08/12 12:01:11;;;;;;;4.15;1.20;;;26.80;96.60;;;;;;5010672;28;20054;-76
2022/08/12 12:03:58;;;;;;;2.88;1.63;;;27.00;97.10;;;;;;5011093;28;20412;-76
2022/08/12 12:06:25;;;;;;;3.58;1.30;;;27.10;97.00;;;;;;5011176;28;20077;-76
2022/08/12 12:08:52;;;;;;;4.18;1.15;;;27.10;97.00;;;;;;5011253;28;20134;-76
2022/08/12 12:11:21;;;;;;;2.63;1.25;;;27.10;95.00;;;;;;5010189;28;20092;-76
2022/08/12 12:13:48;;;;;;;3.88;1.13;;;27.40;93.60;;;;;;5008601;28;20054;-76
2022/08/12 12:16:36;;;;;;;2.97;1.50;;;27.40;94.30;;;;;;5011393;28;20068;-76
2022/08/12 12:19:07;;;;;;;4.22;1.77;;;27.30;94.80;;;;;;5011030;28;20076;-76
2022/08/12 12:21:36;;;;;;;5.55;1.40;;;27.40;95.30;;;;;;5009135;28;20080;-75
2022/08/12 12:24:17;;;;;;;7.82;1.33;;;27.60;95.40;;;;;;5010452;28;20500;-76
2022/08/12 12:26:51;;;;;;;3.17;1.40;;;27.50;94.60;;;;;;5010974;28;20057;-76
2022/08/12 12:29:28;;;;;;;2.40;1.08;;;27.60;94.90;;;;;;5009604;28;20411;-76
2022/08/12 12:32:15;;;;;;;2.72;1.08;;;27.70;94.70;;;;;;5010126;28;20053;-76
2022/08/12 12:34:41;;;;;;;3.90;1.17;;;27.70;94.50;;;;;;5010772;28;20088;-76
2022/08/12 12:37:28;;;;;;;4.90;1.45;;;27.80;93.80;;;;;;5011405;28;20404;-76
2022/08/12 12:40:15;;;;;;;4.78;1.40;;;27.80;94.10;;;;;;5010201;28;20141;-76
2022/08/12 12:42:42;;;;;;;2.47;1.30;;;27.90;93.80;;;;;;5010901;28;20430;-76
2022/08/12 12:45:26;;;;;;;2.40;1.10;;;27.80;93.40;;;;;;5010827;28;20559;-76
2022/08/12 12:48:07;;;;;;;7.25;1.33;;;27.80;93.60;;;;;;5010041;28;20049;-76
2022/08/12 12:50:38;;;;;;;4.57;1.13;;;27.70;94.60;;;;;;5010264;28;20140;-75
2022/08/12 12:53:20;;;;;;;2.20;0.98;;;27.90;94.00;;;;;;5009868;28;20053;-76
2022/08/12 12:56:21;;;;;;;2.47;1.30;;;27.90;93.30;;;;;;5014449;28;20509;-76
2022/08/12 12:59:02;;;;;;;2.25;1.27;;;28.00;93.70;;;;;;5013611;28;20061;-76
2022/08/12 13:01:29;;;;;;;7.97;1.45;;;28.10;93.10;;;;;;5015516;28;20046;-76
2022/08/12 13:03:59;;;;;;;;;;;28.10;93.70;;;;;;5015030;28;20089;-76
2022/08/12 13:06:29;;;;;;;6.55;1.33;;;28.00;93.30;;;;;;5012779;28;19921;-77
2022/08/12 13:08:58;;;;;;;7.80;1.02;;;28.00;93.20;;;;;;5012015;28;20508;-75
2022/08/12 13:11:30;;;;;;;2.80;1.15;;;28.00;92.00;;;;;;5014433;28;20046;-76
2022/08/12 13:14:07;;;;;;;5.80;1.42;;;28.20;91.30;;;;;;5012700;28;20050;-76
2022/08/12 13:16:54;;;;;;;1.95;0.95;;;28.20;92.40;;;;;;5013369;28;20056;-76
2022/08/12 13:19:22;;;;;;;2.72;1.38;;;28.20;91.30;;;;;;5013858;28;20046;-76
2022/08/12 13:22:16;;;;;;;3.78;1.20;;;28.20;91.30;;;;;;5012877;28;20045;-76
2022/08/12 13:24:49;;;;;;;3.38;1.50;;;28.40;89.10;;;;;;5012954;28;20041;-76
2022/08/12 13:27:28;;;;;;;2.17;1.45;;;28.30;89.00;;;;;;5012656;28;20045;-76
2022/08/12 13:30:03;;;;;;;;;;;28.30;89.20;;;;;;5012168;28;20099;-76
2022/08/12 13:32:37;;;;;;;3.05;0.90;;;28.30;85.80;;;;;;5012800;28;19921;-76
2022/08/12 13:35:05;;;;;;;1.73;1.00;;;28.30;86.40;;;;;;5013792;28;20089;-76
2022/08/12 13:37:54;;;;;;;2.50;1.00;;;28.40;84.60;;;;;;5013985;28;20053;-76
2022/08/12 13:40:29;;;;;;;3.80;1.23;;;28.50;83.90;;;;;;5013817;28;20136;-76
2022/08/12 13:42:57;;;;;;;1.08;0.90;;;28.40;82.60;;;;;;5013686;28;20046;-76
2022/08/12 13:45:25;;;;;;;3.05;0.90;;;28.40;83.40;;;;;;5013038;28;20056;-75
2022/08/12 13:47:54;;;;;;;2.55;1.02;;;28.30;81.80;;;;;;5013820;28;20050;-76
2022/08/12 13:50:32;;;;;;;1.13;0.90;;;28.30;81.80;;;;;;5013205;28;20089;-76
2022/08/12 13:53:00;;;;;;;1.08;0.80;;;28.50;80.10;;;;;;5012034;28;20137;-76
2022/08/12 13:55:51;;;;;;;2.22;0.75;;;28.50;79.60;;;;;;5013670;28;20057;-76
2022/08/12 13:58:27;;;;;;;1.45;0.85;;;28.60;81.20;;;;;;5010547;28;20050;-76
2022/08/12 14:00:56;;;;;;;1.90;1.00;;;28.60;79.70;;;;;;5013440;28;20057;-76
2022/08/12 14:03:25;;;;;;;1.73;1.05;;;28.70;79.10;;;;;;5013183;28;20579;-76
2022/08/12 14:06:12;;;;;;;2.38;1.02;;;28.70;79.70;;;;;;5012335;28;20060;-75
2022/08/12 14:08:42;;;;;;;1.20;0.70;;;28.70;79.90;;;;;;5013066;28;20053;-76
2022/08/12 14:11:09;;;;;;;4.22;0.88;;;28.90;79.80;;;;;;5010456;28;20096;-76
2022/08/12 14:13:38;;;;;;;;;;;29.00;80.40;;;;;;5013839;28;20050;-76
2022/08/12 14:16:27;;;;;;;3.72;1.02;;;28.80;79.30;;;;;;5012005;28;19929;-76
2022/08/12 14:19:13;;;;;;;1.48;0.93;;;28.90;77.90;;;;;;5012032;28;20054;-76
2022/08/12 14:21:50;;;;;;;2.05;0.98;;;28.80;77.70;;;;;;5011597;28;20050;-76
2022/08/12 14:24:33;;;;;;;;;;;29.00;77.80;;;;;;5013668;28;20177;-76
2022/08/12 14:27:02;;;;;;;2.85;0.90;;;28.90;77.20;;;;;;5013213;28;19948;-76
2022/08/12 14:29:34;;;;;;;3.17;0.90;;;28.90;76.80;;;;;;5012896;28;20053;-76
2022/08/12 14:32:21;;;;;;;0.85;0.80;;;28.90;76.40;;;;;;5012721;28;20061;-76
2022/08/12 14:34:50;;;;;;;1.55;0.98;;;28.80;76.30;;;;;;5012782;28;20053;-76
2022/08/12 14:37:17;;;;;;;3.20;0.90;;;29.00;76.50;;;;;;5012633;28;20050;-76
2022/08/12 14:40:05;;;;;;;1.88;0.98;;;28.80;76.20;;;;;;5012502;28;20084;-76
2022/08/12 14:42:32;;;;;;;1.10;0.80;;;28.80;76.80;;;;;;5012561;28;20084;-76
2022/08/12 14:44:58;;;;;;;0.98;0.90;;;29.10;76.00;;;;;;5012372;28;20133;-76
2022/08/12 14:47:28;;;;;;;2.38;0.88;;;29.00;75.20;;;;;;5012623;28;20081;-76
2022/08/12 14:50:02;;;;;;;4.63;0.98;;;29.10;75.80;;;;;;5012397;28;20053;-76
2022/08/12 14:52:50;;;;;;;4.38;0.80;;;29.20;75.20;;;;;;5012291;28;20507;-76
2022/08/12 14:55:40;;;;;;;4.10;0.90;;;29.00;75.70;;;;;;5009521;28;20054;-76
2022/08/12 14:58:26;;;;;;;1.10;0.80;;;29.10;75.60;;;;;;5012268;28;20053;-76
2022/08/12 15:03:48;;;;;;;1.25;1.15;;;29.00;75.70;;;;;;5009274;28;20045;-75
2022/08/12 15:06:25;;;;;;;1.13;0.90;;;29.10;75.30;;;;;;5011992;28;20046;-76
2022/08/12 15:09:13;;;;;;;3.97;0.95;;;28.90;75.40;;;;;;5011954;28;20060;-75
2022/08/12 15:11:42;;;;;;;;;;;29.00;75.30;;;;;;5012930;28;20064;-76
2022/08/12 15:14:25;;;;;;;1.10;0.70;;;28.90;75.40;;;;;;5012028;28;19933;-76
2022/08/12 15:16:56;;;;;;;1.48;0.85;;;29.00;74.50;;;;;;5011914;28;20423;-77
2022/08/12 15:19:28;;;;;;;2.33;1.30;;;28.90;74.10;;;;;;5011473;28;20136;-76
2022/08/12 15:22:15;;;;;;;1.10;0.75;;;28.90;74.10;;;;;;5011819;28;20054;-76
2022/08/12 15:25:04;;;;;;;2.28;0.88;;;28.90;74.50;;;;;;5012212;28;20050;-76